LICA/SUF METAR and TAF weather

Enter ICAO airport designator
Station Type Date Time Source
LICA METAR 2019/04/18 10:50 UTC NOAA

LICA 181050Z 25007KT 9999 FEW030 17/12 Q1021


Station Type Date Time Source
LICA Decoded METAR 2019/04/18 10:50 UTC NOAA

Lamezia Terme, Italy (LICA) 38-54N 016-15E
Apr 18, 2019 - 06:50 AM EDT / 2019.04.18 1050 UTC
Wind: from the WSW (250 degrees) at 8 MPH (7 KT):0
Visibility: greater than 7 mile(s):0
Sky conditions: mostly clear
Temperature: 62 F (17 C)
Dew Point: 53 F (12 C)
Relative Humidity: 72%
Pressure (altimeter): 30.15 in. Hg (1021 hPa)
ob: LICA 181050Z 25007KT 9999 FEW030 17/12 Q1021
cycle: 11

Station Type Date Time Source
LICA TAF 2019/04/18 06:21 UTC NOAA

TAF LICA 180500Z 1806/1906 VRB05KT 9999 FEW030
BECMG 1807/1809 27010KT
BECMG 1818/1820 VRB04KT

Example: see airport list